createdAt,value
2017-06-03T13:45:08.000Z,26.3
2017-06-03T13:51:48.000Z,28.6
2017-06-03T14:01:50.000Z,28.5
2017-06-03T14:11:48.000Z,26.3
2017-06-03T14:21:54.000Z,26.2
2017-06-03T14:31:49.000Z,26.2
2017-06-03T14:41:49.000Z,26.1
2017-06-03T14:51:49.000Z,26.2
2017-06-03T15:01:50.000Z,26.2
2017-06-03T15:11:50.000Z,26.2
2017-06-03T15:21:49.000Z,26.2
2017-06-03T15:31:49.000Z,26.3
2017-06-03T15:41:49.000Z,26.2
2017-06-03T15:51:49.000Z,25.9
2017-06-03T16:01:49.000Z,26.3
2017-06-03T16:11:49.000Z,26.4
2017-06-03T16:21:49.000Z,26.5
2017-06-03T16:31:50.000Z,26.2
2017-06-03T16:41:49.000Z,26.5
2017-06-03T16:51:49.000Z,26.5
2017-06-03T17:01:49.000Z,26.3
2017-06-03T17:11:50.000Z,26.3
2017-06-03T17:21:49.000Z,26.4
2017-06-03T17:31:52.000Z,26.4
2017-06-03T17:41:49.000Z,26.2
2017-06-03T17:51:49.000Z,26.2
2017-06-03T18:01:49.000Z,26.2
2017-06-03T18:11:49.000Z,26.2
2017-06-03T18:21:49.000Z,26.2
2017-06-03T18:31:52.000Z,25.9
2017-06-03T18:41:49.000Z,26
2017-06-03T18:51:50.000Z,26.2
2017-06-03T19:01:50.000Z,25.9
2017-06-03T19:11:50.000Z,26.2
2017-06-03T19:21:49.000Z,26.2
2017-06-03T19:31:50.000Z,25.6
2017-06-03T19:41:49.000Z,25.8
2017-06-03T19:51:50.000Z,26
2017-06-03T20:01:49.000Z,25.6
2017-06-03T20:11:50.000Z,25.7
2017-06-03T20:21:49.000Z,25.7
2017-06-03T20:31:50.000Z,25.7
2017-06-03T20:41:49.000Z,25.5
2017-06-03T20:51:50.000Z,25.8
2017-06-03T21:01:50.000Z,25.6
2017-06-03T21:11:50.000Z,25.6
2017-06-03T21:21:50.000Z,25.3
2017-06-03T21:31:51.000Z,25.6
2017-06-03T21:41:50.000Z,25.7
2017-06-03T21:51:50.000Z,25.6
2017-06-03T22:01:50.000Z,25.6
2017-06-03T22:11:50.000Z,25.6
2017-06-03T22:21:50.000Z,25.3
2017-06-03T22:31:50.000Z,25.6
2017-06-03T22:41:50.000Z,25.5
2017-06-03T22:51:50.000Z,25.5
2017-06-03T23:01:50.000Z,25.5
2017-06-03T23:11:50.000Z,25.5
2017-06-03T23:21:50.000Z,25.2
2017-06-03T23:31:50.000Z,25.4
2017-06-03T23:41:50.000Z,25.4
2017-06-03T23:51:50.000Z,25.3
